Time;durP1;ratioP1;P1;durP2;ratioP2;P2;SDS_P1;SDS_P2;PMS_P1;PMS_P2;Temp;Humidity;BMP_temperature;BMP_pressure;BME280_temperature;BME280_humidity;BME280_pressure;Samples;Min_cycle;Max_cycle;Signal;HPM_P1;HPM_P2
2022/11/24 00:00:07;;;;;;;17.13;9.45;;;8.80;99.90;9.10;99438.00;;;;340189;28;83495;-89
2022/11/24 00:00:18;;;;;;;18.73;9.93;;;8.90;99.90;9.20;99435.00;;;;344008;28;87677;-90
2022/11/24 00:00:30;;;;;;;15.27;9.63;;;8.90;99.90;9.20;99444.00;;;;344505;28;83706;-89
2022/11/24 00:00:42;;;;;;;14.43;9.43;;;8.90;99.90;9.20;99439.00;;;;342472;28;91069;-89
2022/11/24 00:01:00;;;;;;;14.02;9.15;;;8.90;99.90;9.30;99443.00;;;;342913;28;83563;-89
2022/11/24 00:01:17;;;;;;;13.85;9.50;;;8.90;99.90;9.40;99437.00;;;;339555;28;91033;-89
2022/11/24 00:01:30;;;;;;;14.18;9.00;;;8.90;99.90;9.30;99441.00;;;;341644;28;83582;-90
2022/11/24 00:01:42;;;;;;;16.15;10.15;;;8.90;99.90;9.20;99443.00;;;;341381;28;89007;-90
2022/11/24 00:01:54;;;;;;;14.27;10.05;;;8.90;99.90;9.40;99440.00;;;;344422;28;83481;-90
2022/11/24 00:02:06;;;;;;;12.57;9.40;;;8.90;99.90;9.50;99435.00;;;;343943;28;92520;-89
2022/11/24 00:02:18;;;;;;;11.93;8.35;;;8.90;99.90;9.30;99442.00;;;;344273;28;87775;-89
2022/11/24 00:02:30;;;;;;;12.65;8.30;;;9.00;99.90;9.40;99436.00;;;;342718;28;91863;-89
2022/11/24 00:02:42;;;;;;;14.00;8.15;;;9.00;99.90;9.50;99442.00;;;;343069;28;83414;-89
2022/11/24 00:02:53;;;;;;;14.20;8.35;;;9.00;99.90;9.40;99437.00;;;;343944;28;91636;-90
2022/11/24 00:03:05;;;;;;;15.40;8.75;;;9.00;99.90;9.50;99437.00;;;;341662;28;83742;-90
2022/11/24 00:03:17;;;;;;;15.23;9.05;;;9.00;99.90;9.50;99439.00;;;;342570;28;92204;-89
2022/11/24 00:03:29;;;;;;;14.93;8.73;;;9.00;99.90;9.40;99443.00;;;;341372;28;83822;-89
2022/11/24 00:03:43;;;;;;;15.85;8.52;;;9.00;99.90;9.60;99443.00;;;;344038;28;89880;-89
2022/11/24 00:04:00;;;;;;;13.90;8.00;;;9.10;99.90;9.40;99434.00;;;;344571;28;82390;-89
2022/11/24 00:04:12;;;;;;;13.15;7.65;;;9.00;99.90;9.20;99444.00;;;;343712;28;93240;-90
2022/11/24 00:04:24;;;;;;;13.35;8.23;;;9.00;99.90;9.20;99437.00;;;;344111;28;83584;-89
2022/11/24 00:04:36;;;;;;;12.90;8.80;;;9.00;99.90;9.10;99444.00;;;;342683;28;90305;-90
2022/11/24 00:04:48;;;;;;;13.07;9.15;;;9.00;99.90;9.20;99446.00;;;;344187;28;84812;-89
2022/11/24 00:05:00;;;;;;;15.10;9.05;;;9.00;99.90;9.30;99445.00;;;;344055;28;88850;-90
2022/11/24 00:05:12;;;;;;;15.68;9.20;;;9.00;99.90;9.30;99440.00;;;;342550;28;83899;-90
2022/11/24 00:05:24;;;;;;;13.80;8.68;;;9.00;99.90;9.30;99444.00;;;;341210;28;91439;-89
2022/11/24 00:05:37;;;;;;;12.20;8.98;;;9.00;99.90;9.20;99441.00;;;;343005;28;82618;-89
2022/11/24 00:05:49;;;;;;;15.82;9.77;;;9.00;99.90;9.30;99436.00;;;;345247;28;92143;-90
2022/11/24 00:06:06;;;;;;;16.92;9.98;;;9.00;99.90;9.30;99444.00;;;;345627;28;83506;-89
2022/11/24 00:06:18;;;;;;;18.38;9.98;;;9.00;99.90;9.50;99443.00;;;;343971;28;89910;-90
2022/11/24 00:06:31;;;;;;;18.33;10.20;;;9.00;99.90;9.30;99433.00;;;;344076;28;86217;-90
2022/11/24 00:06:43;;;;;;;18.05;11.18;;;9.00;99.90;9.20;99438.00;;;;344176;28;87941;-89
2022/11/24 00:06:55;;;;;;;19.52;10.75;;;9.00;99.90;9.30;99428.00;;;;343054;28;84250;-90
2022/11/24 00:07:07;;;;;;;20.13;10.48;;;9.00;99.90;9.20;99435.00;;;;342676;28;88357;-89
2022/11/24 00:07:18;;;;;;;17.45;9.82;;;8.90;99.90;9.00;99441.00;;;;342748;28;84847;-90
2022/11/24 00:07:30;;;;;;;18.48;9.95;;;8.90;99.90;9.00;99445.00;;;;341339;28;88277;-90
2022/11/24 00:07:42;;;;;;;16.20;9.68;;;9.00;99.90;9.00;99443.00;;;;342467;28;84751;-90
2022/11/24 00:07:54;;;;;;;17.52;9.98;;;9.00;99.90;9.00;99445.00;;;;343689;28;88919;-90
2022/11/24 00:08:06;;;;;;;17.48;9.96;;;8.90;99.90;9.10;99448.00;;;;344125;28;83711;-89
2022/11/24 00:08:18;;;;;;;16.70;10.13;;;8.90;99.90;9.10;99443.00;;;;341072;28;90686;-89
2022/11/24 00:08:30;;;;;;;16.38;10.15;;;8.90;99.90;9.10;99445.00;;;;344405;28;86316;-89
2022/11/24 00:08:43;;;;;;;15.02;9.40;;;8.90;99.90;9.10;99441.00;;;;341340;28;92011;-90
2022/11/24 00:08:55;;;;;;;15.90;10.10;;;8.90;99.90;9.10;99436.00;;;;344001;28;86501;-90
2022/11/24 00:09:07;;;;;;;17.17;10.00;;;8.90;99.90;9.10;99440.00;;;;342714;28;91067;-90
2022/11/24 00:09:19;;;;;;;19.17;9.75;;;8.90;99.90;9.10;99437.00;;;;344200;28;85215;-90
2022/11/24 00:09:30;;;;;;;18.35;9.75;;;8.90;99.90;9.20;99436.00;;;;344022;28;89160;-89
2022/11/24 00:09:42;;;;;;;16.58;9.90;;;8.90;99.90;9.20;99438.00;;;;344450;28;83517;-89
2022/11/24 00:09:54;;;;;;;17.38;10.25;;;9.00;99.90;9.10;99440.00;;;;343864;28;89584;-88
2022/11/24 00:10:06;;;;;;;18.58;10.30;;;8.90;99.90;9.20;99441.00;;;;342993;28;85393;-89
2022/11/24 00:10:18;;;;;;;19.10;10.60;;;8.90;99.90;9.20;99437.00;;;;344985;28;91858;-90
2022/11/24 00:10:30;;;;;;;16.90;10.20;;;8.90;99.90;9.20;99443.00;;;;345457;28;86855;-89
2022/11/24 00:10:42;;;;;;;17.08;10.30;;;8.90;99.90;9.30;99446.00;;;;344043;28;88049;-90
2022/11/24 00:10:54;;;;;;;16.33;9.93;;;8.90;99.90;9.20;99440.00;;;;342858;28;83744;-89
2022/11/24 00:11:13;;;;;;;17.70;9.98;;;9.00;99.90;9.20;99444.00;;;;343936;28;91915;-90
2022/11/24 00:11:27;;;;;;;20.73;11.15;;;8.90;99.90;9.30;99434.00;;;;345556;28;84760;-88
2022/11/24 00:11:39;;;;;;;23.13;11.43;;;8.90;99.90;9.30;99432.00;;;;344060;28;88455;-90
2022/11/24 00:11:51;;;;;;;21.65;10.85;;;8.90;99.90;9.30;99445.00;;;;345269;28;87232;-90
2022/11/24 00:12:03;;;;;;;16.50;10.15;;;8.90;99.90;9.30;99447.00;;;;344167;28;89861;-90
2022/11/24 00:12:15;;;;;;;15.82;9.75;;;8.90;99.90;9.30;99444.00;;;;342898;28;87144;-90
2022/11/24 00:12:26;;;;;;;14.90;9.27;;;8.90;99.90;9.30;99439.00;;;;341320;28;90526;-89
2022/11/24 00:12:38;;;;;;;14.98;9.30;;;9.00;99.90;9.20;99440.00;;;;344210;28;84044;-89
2022/11/24 00:12:50;;;;;;;14.60;9.40;;;8.90;99.90;9.20;99437.00;;;;343838;28;88970;-89
2022/11/24 00:13:02;;;;;;;14.65;9.52;;;9.00;99.90;9.20;99441.00;;;;343156;28;83376;-90
2022/11/24 00:13:14;;;;;;;14.10;9.93;;;8.90;99.90;9.10;99434.00;;;;342709;28;89328;-89
2022/11/24 00:13:26;;;;;;;17.38;10.57;;;8.90;99.90;9.10;99436.00;;;;340292;28;83551;-89
2022/11/24 00:13:38;;;;;;;16.38;10.05;;;8.90;99.90;9.10;99440.00;;;;342546;28;90950;-89
2022/11/24 00:13:50;;;;;;;15.40;10.00;;;8.90;99.90;9.10;99446.00;;;;341256;28;87220;-89
2022/11/24 00:14:02;;;;;;;15.88;10.18;;;8.90;99.90;9.10;99441.00;;;;342656;28;90219;-89
2022/11/24 00:14:14;;;;;;;17.10;10.88;;;8.90;99.90;9.00;99446.00;;;;341416;28;85146;-90
2022/11/24 00:14:26;;;;;;;19.40;10.77;;;8.90;99.90;9.00;99429.00;;;;346422;28;91519;-90
2022/11/24 00:14:37;;;;;;;19.52;10.90;;;8.90;99.90;9.00;99443.00;;;;345726;28;84391;-90
2022/11/24 00:14:49;;;;;;;17.33;10.35;;;8.90;99.90;8.90;99448.00;;;;344023;28;90840;-89
2022/11/24 00:15:01;;;;;;;16.15;9.95;;;8.80;99.90;9.00;99445.00;;;;342692;28;87721;-89
2022/11/24 00:15:13;;;;;;;15.43;9.68;;;8.80;99.90;9.00;99444.00;;;;344139;28;88344;-89
2022/11/24 00:15:25;;;;;;;15.98;9.77;;;8.80;99.90;9.00;99444.00;;;;341830;28;82378;-90
2022/11/24 00:15:36;;;;;;;14.55;9.25;;;8.80;99.90;8.90;99444.00;;;;345435;28;89741;-89
2022/11/24 00:15:48;;;;;;;13.68;8.68;;;8.80;99.90;8.90;99438.00;;;;344383;28;84993;-90
2022/11/24 00:16:12;;;;;;;15.23;9.02;;;8.80;99.90;9.00;99436.00;;;;342778;28;87692;-89
2022/11/24 00:16:28;;;;;;;15.50;10.18;;;8.80;99.90;9.10;99443.00;;;;344479;28;83341;-90
2022/11/24 00:16:41;;;;;;;17.02;10.23;;;8.90;99.90;9.20;99441.00;;;;341284;28;90937;-89
2022/11/24 00:16:53;;;;;;;17.58;9.98;;;8.90;99.90;9.10;99441.00;;;;342960;28;84100;-90
2022/11/24 00:17:05;;;;;;;18.15;10.48;;;8.90;99.90;9.10;99445.00;;;;345418;28;89417;-90
2022/11/24 00:17:17;;;;;;;16.15;10.30;;;8.90;99.90;9.10;99433.00;;;;341401;28;85747;-89
2022/11/24 00:17:28;;;;;;;16.13;10.13;;;8.90;99.90;9.00;99437.00;;;;344033;28;89588;-89
2022/11/24 00:17:40;;;;;;;15.70;9.38;;;8.90;99.90;9.00;99441.00;;;;341658;28;83462;-89
2022/11/24 00:17:52;;;;;;;17.17;9.10;;;8.80;99.90;9.00;99441.00;;;;343952;28;89314;-90
2022/11/24 00:18:04;;;;;;;17.33;9.40;;;8.90;99.90;9.10;99420.00;;;;340295;28;83879;-90
2022/11/24 00:18:15;;;;;;;17.73;10.07;;;8.80;99.90;9.10;99434.00;;;;345312;28;91512;-89
2022/11/24 00:18:27;;;;;;;16.88;9.85;;;8.90;99.90;9.20;99433.00;;;;342822;28;83481;-89
2022/11/24 00:18:40;;;;;;;17.30;9.80;;;8.80;99.90;9.20;99433.00;;;;342644;28;90886;-89
2022/11/24 00:18:55;;;;;;;16.50;9.50;;;8.90;99.90;9.20;99432.00;;;;344092;28;83468;-90
2022/11/24 00:19:08;;;;;;;13.55;8.60;;;8.90;99.90;9.30;99433.00;;;;343822;28;91686;-90
2022/11/24 00:19:19;;;;;;;12.75;9.05;;;8.90;99.90;9.40;99442.00;;;;344168;28;82465;-90
2022/11/24 00:19:31;;;;;;;13.35;9.30;;;8.90;99.90;9.40;99433.00;;;;342566;28;89525;-89
2022/11/24 00:19:43;;;;;;;14.25;9.18;;;8.90;99.90;9.40;99432.00;;;;342887;28;84828;-90
2022/11/24 00:19:55;;;;;;;16.85;9.02;;;9.00;99.90;9.20;99436.00;;;;343896;28;91562;-89
2022/11/24 00:20:08;;;;;;;16.92;9.43;;;8.90;99.90;9.20;99431.00;;;;343760;28;83543;-89
2022/11/24 00:20:19;;;;;;;16.55;9.30;;;8.90;99.90;9.10;99436.00;;;;342724;28;87695;-90
2022/11/24 00:20:31;;;;;;;15.50;8.73;;;8.90;99.90;9.10;99432.00;;;;342930;28;82552;-88
2022/11/24 00:20:50;;;;;;;18.33;8.63;;;8.90;99.90;9.10;99438.00;;;;342442;28;91549;-90
2022/11/24 00:21:02;;;;;;;19.60;9.02;;;8.90;99.90;9.00;99429.00;;;;342263;28;85229;-90
2022/11/24 00:21:15;;;;;;;19.45;9.23;;;8.90;99.90;9.00;99436.00;;;;342735;28;88871;-89
2022/11/24 00:21:28;;;;;;;18.77;8.88;;;8.90;99.90;9.00;99433.00;;;;341665;28;83496;-89
2022/11/24 00:21:40;;;;;;;16.70;9.15;;;8.90;99.90;8.90;99437.00;;;;341249;28;90044;-88
2022/11/24 00:21:52;;;;;;;15.70;8.95;;;8.90;99.90;8.80;99426.00;;;;340356;28;83329;-89
2022/11/24 00:22:04;;;;;;;16.73;9.23;;;8.80;99.90;8.80;99429.00;;;;342763;28;89623;-90
2022/11/24 00:22:16;;;;;;;16.77;9.63;;;8.90;99.90;9.00;99427.00;;;;341656;28;83745;-90
2022/11/24 00:22:27;;;;;;;17.45;9.70;;;8.80;99.90;9.20;99419.00;;;;344169;28;88114;-90
2022/11/24 00:22:39;;;;;;;16.73;9.00;;;8.80;99.90;9.40;99428.00;;;;340307;28;84279;-90
2022/11/24 00:22:51;;;;;;;16.42;8.52;;;8.90;99.90;9.40;99430.00;;;;343895;28;90864;-89
2022/11/24 00:23:03;;;;;;;15.13;8.52;;;8.90;99.90;9.40;99428.00;;;;343076;28;83454;-89
2022/11/24 00:23:14;;;;;;;12.95;8.43;;;8.90;99.90;9.40;99421.00;;;;341382;28;89530;-90
2022/11/24 00:23:26;;;;;;;14.25;8.80;;;9.00;99.90;9.40;99427.00;;;;342620;28;83469;-89
2022/11/24 00:23:38;;;;;;;14.65;8.88;;;8.90;99.90;9.40;99429.00;;;;342469;28;89803;-89
2022/11/24 00:23:50;;;;;;;12.90;8.57;;;9.00;99.90;9.20;99423.00;;;;341759;28;82548;-90
2022/11/24 00:24:03;;;;;;;11.35;8.50;;;9.00;99.90;9.20;99426.00;;;;342667;28;89412;-89
2022/11/24 00:24:14;;;;;;;12.32;8.52;;;8.90;99.90;9.30;99415.00;;;;341630;28;83500;-89
2022/11/24 00:24:26;;;;;;;14.45;9.35;;;8.90;99.90;9.30;99423.00;;;;340034;28;88634;-90
2022/11/24 00:24:38;;;;;;;14.77;9.20;;;8.90;99.90;9.20;99420.00;;;;341540;28;83626;-90
2022/11/24 00:24:50;;;;;;;14.05;9.77;;;8.90;99.90;9.20;99421.00;;;;342432;28;92528;-90
2022/11/24 00:25:02;;;;;;;14.90;9.00;;;8.90;99.90;9.10;99427.00;;;;341754;28;82550;-90
2022/11/24 00:25:14;;;;;;;14.32;8.70;;;9.00;99.90;9.00;99432.00;;;;344021;28;88880;-90
2022/11/24 00:25:26;;;;;;;13.43;8.90;;;8.90;99.90;9.10;99419.00;;;;343102;28;82151;-89
2022/11/24 00:25:37;;;;;;;14.10;9.40;;;8.90;99.90;8.90;99427.00;;;;342439;28;90414;-89
2022/11/24 00:25:49;;;;;;;13.20;8.68;;;8.90;99.90;8.90;99423.00;;;;341672;28;83399;-90
2022/11/24 00:26:09;;;;;;;13.75;8.68;;;8.90;99.90;8.90;99432.00;;;;343841;28;90885;-89
2022/11/24 00:26:23;;;;;;;17.15;9.52;;;8.90;99.90;9.00;99418.00;;;;342774;28;83876;-90
2022/11/24 00:26:38;;;;;;;18.60;9.93;;;8.90;99.90;9.10;99424.00;;;;344300;28;90720;-89
2022/11/24 00:26:50;;;;;;;17.88;10.10;;;8.90;99.90;9.10;99425.00;;;;344404;28;83357;-89
2022/11/24 00:27:02;;;;;;;18.45;10.00;;;8.90;99.90;9.10;99425.00;;;;345149;28;91973;-89
2022/11/24 00:27:13;;;;;;;17.13;9.60;;;8.90;99.90;9.30;99416.00;;;;344353;28;84787;-89
2022/11/24 00:27:25;;;;;;;15.45;8.52;;;8.90;99.90;9.30;99424.00;;;;342458;28;89423;-89
2022/11/24 00:27:37;;;;;;;14.10;8.32;;;8.90;99.90;9.30;99419.00;;;;344105;28;83760;-90
2022/11/24 00:27:51;;;;;;;15.85;9.23;;;8.90;99.90;9.20;99425.00;;;;342540;28;89841;-89
2022/11/24 00:28:03;;;;;;;17.98;9.70;;;8.90;99.90;9.10;99425.00;;;;345800;28;83470;-89
2022/11/24 00:28:14;;;;;;;17.15;9.88;;;8.90;99.90;9.10;99417.00;;;;341214;28;89761;-90
2022/11/24 00:28:26;;;;;;;15.23;9.30;;;8.90;99.90;9.20;99417.00;;;;342891;28;85567;-89
2022/11/24 00:28:38;;;;;;;15.57;8.73;;;8.90;99.90;9.20;99420.00;;;;343829;28;90487;-90
2022/11/24 00:28:53;;;;;;;14.98;8.85;;;8.90;99.90;9.30;99429.00;;;;344341;28;83563;-89
2022/11/24 00:29:06;;;;;;;13.32;8.82;;;8.90;99.90;9.20;99423.00;;;;343988;28;90802;-89
2022/11/24 00:29:18;;;;;;;13.95;8.63;;;8.90;99.90;9.20;99417.00;;;;343021;28;82805;-89
2022/11/24 00:29:30;;;;;;;14.25;8.43;;;8.90;99.90;9.20;99419.00;;;;341200;28;89864;-89
2022/11/24 00:29:42;;;;;;;13.38;8.15;;;8.90;99.90;9.30;99428.00;;;;344456;28;83393;-89
2022/11/24 00:29:53;;;;;;;15.02;8.18;;;8.90;99.90;9.20;99417.00;;;;345333;28;89061;-89
2022/11/24 00:30:06;;;;;;;16.00;8.82;;;8.90;99.90;9.20;99419.00;;;;341662;28;83354;-88
2022/11/24 00:30:18;;;;;;;15.80;8.88;;;8.90;99.90;9.10;99420.00;;;;345395;28;89458;-90
2022/11/24 00:30:29;;;;;;;16.67;8.65;;;8.90;99.90;9.20;99418.00;;;;345392;28;83636;-89
2022/11/24 00:30:41;;;;;;;16.83;8.65;;;8.90;99.90;9.20;99420.00;;;;343837;28;89498;-89
2022/11/24 00:30:53;;;;;;;15.57;8.95;;;8.90;99.90;9.20;99429.00;;;;342692;28;83376;-89
2022/11/24 00:31:22;;;;;;;15.20;9.32;;;8.90;99.90;9.20;99422.00;;;;344004;28;91080;-89
2022/11/24 00:31:38;;;;;;;13.43;8.88;;;8.90;99.90;9.10;99426.00;;;;341637;28;83482;-89
2022/11/24 00:31:50;;;;;;;15.38;8.60;;;8.90;99.90;9.10;99427.00;;;;347959;27;89897;-89
2022/11/24 00:32:04;;;;;;;15.90;8.60;;;8.90;99.90;9.00;99418.00;;;;344532;28;82407;-89
2022/11/24 00:32:16;;;;;;;15.52;8.68;;;8.80;99.90;8.90;99424.00;;;;341314;28;88355;-89
2022/11/24 00:32:28;;;;;;;14.55;8.43;;;8.90;99.90;8.80;99426.00;;;;342600;28;83884;-89
2022/11/24 00:32:40;;;;;;;14.77;8.60;;;8.80;99.90;9.00;99433.00;;;;341372;28;89809;-89
2022/11/24 00:32:52;;;;;;;15.27;8.82;;;8.80;99.90;9.00;99427.00;;;;341613;28;83210;-90
2022/11/24 00:33:04;;;;;;;13.88;8.98;;;8.80;99.90;9.00;99430.00;;;;342697;28;89926;-89
2022/11/24 00:33:15;;;;;;;13.73;9.20;;;8.80;99.90;8.90;99427.00;;;;342895;28;83451;-89
2022/11/24 00:33:27;;;;;;;13.82;9.20;;;8.80;99.90;8.80;99434.00;;;;342374;28;92103;-89
2022/11/24 00:33:39;;;;;;;16.20;9.68;;;8.80;99.90;8.80;99418.00;;;;345797;28;82460;-89
2022/11/24 00:33:55;;;;;;;15.93;9.68;;;8.80;99.90;8.60;99431.00;;;;345462;28;89747;-89
2022/11/24 00:34:10;;;;;;;13.48;8.48;;;8.80;99.90;8.60;99436.00;;;;342821;28;83497;-89
2022/11/24 00:34:22;;;;;;;14.80;8.65;;;8.70;99.90;8.60;99436.00;;;;346411;28;91188;-90
2022/11/24 00:34:34;;;;;;;16.38;9.10;;;8.70;99.90;8.60;99427.00;;;;345742;28;83223;-90
2022/11/24 00:34:46;;;;;;;18.05;9.50;;;8.70;99.90;8.60;99428.00;;;;342434;28;91928;-89
2022/11/24 00:34:58;;;;;;;17.20;9.45;;;8.70;99.90;8.50;99428.00;;;;345784;28;82501;-90
2022/11/24 00:35:10;;;;;;;16.42;9.55;;;8.70;99.90;8.40;99428.00;;;;344116;28;89414;-90
2022/11/24 00:35:22;;;;;;;16.52;9.88;;;8.60;99.90;8.40;99421.00;;;;344386;28;82718;-90
2022/11/24 00:35:33;;;;;;;15.15;9.82;;;8.60;99.90;8.40;99433.00;;;;342195;28;93391;-90
2022/11/24 00:35:53;;;;;;;16.23;10.05;;;8.60;99.90;8.40;99435.00;;;;343024;28;84777;-89
2022/11/24 00:36:05;;;;;;;15.30;9.10;;;8.60;99.90;8.50;99433.00;;;;339989;28;87852;-89
2022/11/24 00:36:17;;;;;;;13.85;8.43;;;8.60;99.90;8.50;99433.00;;;;343788;28;84197;-89
2022/11/24 00:36:31;;;;;;;16.08;8.90;;;8.60;99.90;8.50;99425.00;;;;343843;28;90164;-89
2022/11/24 00:36:42;;;;;;;17.27;9.38;;;8.50;99.90;8.50;99432.00;;;;343161;28;83422;-90
2022/11/24 00:36:54;;;;;;;15.57;9.65;;;8.50;99.90;8.50;99428.00;;;;345089;28;91857;-90
2022/11/24 00:37:06;;;;;;;16.88;10.35;;;8.50;99.90;8.50;99426.00;;;;344424;28;83362;-90
2022/11/24 00:37:18;;;;;;;15.27;10.25;;;8.50;99.90;8.50;99422.00;;;;341061;28;92057;-89
2022/11/24 00:37:30;;;;;;;14.70;9.63;;;8.50;99.90;8.50;99425.00;;;;341421;28;84150;-90
2022/11/24 00:37:41;;;;;;;13.85;8.90;;;8.50;99.90;8.50;99432.00;;;;344020;28;90688;-89
2022/11/24 00:37:54;;;;;;;17.33;9.60;;;8.50;99.90;8.50;99430.00;;;;345764;28;82504;-89
2022/11/24 00:38:06;;;;;;;17.15;9.32;;;8.50;99.90;8.50;99430.00;;;;341305;28;89346;-89
2022/11/24 00:38:18;;;;;;;14.45;9.30;;;8.40;99.90;8.50;99429.00;;;;342997;28;82954;-89
2022/11/24 00:38:30;;;;;;;14.52;8.93;;;8.40;99.90;8.50;99431.00;;;;345195;28;91699;-90
2022/11/24 00:38:42;;;;;;;14.18;9.00;;;8.40;99.90;8.40;99429.00;;;;344356;28;83481;-90
2022/11/24 00:38:56;;;;;;;17.42;9.07;;;8.40;99.90;8.40;99428.00;;;;342571;28;88745;-89
2022/11/24 00:39:12;;;;;;;16.50;9.05;;;8.40;99.90;8.60;99428.00;;;;345608;28;83473;-90
2022/11/24 00:39:24;;;;;;;16.27;9.35;;;8.40;99.90;8.60;99432.00;;;;342575;28;89932;-89
2022/11/24 00:39:36;;;;;;;17.65;9.90;;;8.40;99.90;8.60;99423.00;;;;342740;28;82644;-89
2022/11/24 00:39:48;;;;;;;15.48;9.27;;;8.40;99.90;8.70;99432.00;;;;344883;28;92078;-90
2022/11/24 00:39:59;;;;;;;14.93;9.25;;;8.40;99.90;8.70;99433.00;;;;341730;28;82590;-89
2022/11/24 00:40:12;;;;;;;15.50;9.95;;;8.50;99.90;8.60;99427.00;;;;342677;28;89404;-89
2022/11/24 00:40:24;;;;;;;15.48;10.70;;;8.50;99.90;8.60;99428.00;;;;342540;28;83497;-90
2022/11/24 00:40:35;;;;;;;15.35;10.10;;;8.50;99.90;8.60;99424.00;;;;341270;28;89717;-90
2022/11/24 00:40:47;;;;;;;18.58;10.23;;;8.40;99.90;8.60;99434.00;;;;342931;28;83147;-89
2022/11/24 00:40:59;;;;;;;19.17;9.80;;;8.40;99.90;8.70;99432.00;;;;343669;28;92156;-89
2022/11/24 00:41:11;;;;;;;19.40;10.13;;;8.40;99.90;8.70;99431.00;;;;343998;28;83629;-89
2022/11/24 00:41:24;;;;;;;16.23;9.43;;;8.40;99.90;8.70;99427.00;;;;344077;28;88585;-89
2022/11/24 00:41:36;;;;;;;16.17;9.85;;;8.40;99.90;8.70;99434.00;;;;344179;28;85506;-89
2022/11/24 00:41:48;;;;;;;15.35;9.75;;;8.50;99.90;8.70;99432.00;;;;342490;28;89243;-89
2022/11/24 00:42:00;;;;;;;15.23;9.50;;;8.50;99.90;8.70;99428.00;;;;345585;28;84350;-89
2022/11/24 00:42:13;;;;;;;13.75;8.55;;;8.50;99.90;8.70;99427.00;;;;343833;28;89410;-90
2022/11/24 00:42:24;;;;;;;13.82;8.95;;;8.50;99.90;8.70;99430.00;;;;341720;28;83398;-89
2022/11/24 00:42:36;;;;;;;15.75;9.70;;;8.40;99.90;8.70;99438.00;;;;345019;28;87309;-89
2022/11/24 00:42:48;;;;;;;17.52;9.80;;;8.50;99.90;8.70;99433.00;;;;344440;28;83420;-90
2022/11/24 00:43:00;;;;;;;17.20;9.38;;;8.50;99.90;8.60;99427.00;;;;346804;28;90023;-90
2022/11/24 00:43:12;;;;;;;15.60;9.05;;;8.40;99.90;8.60;99428.00;;;;344213;28;82887;-89
2022/11/24 00:43:24;;;;;;;14.82;9.43;;;8.40;99.90;8.60;99429.00;;;;345486;28;89298;-90
2022/11/24 00:43:36;;;;;;;15.40;9.73;;;8.40;99.90;8.60;99431.00;;;;345664;28;82507;-90
2022/11/24 00:43:47;;;;;;;14.32;9.38;;;8.40;99.90;8.60;99423.00;;;;345408;28;89484;-89
2022/11/24 00:43:59;;;;;;;14.73;9.15;;;8.40;99.90;8.70;99433.00;;;;345852;28;82407;-90
2022/11/24 00:44:11;;;;;;;15.63;8.75;;;8.40;99.90;8.70;99427.00;;;;343725;28;91710;-89
2022/11/24 00:44:23;;;;;;;14.93;8.57;;;8.40;99.90;8.70;99435.00;;;;342746;28;83531;-89
2022/11/24 00:44:35;;;;;;;13.52;8.57;;;8.40;99.90;8.70;99420.00;;;;342670;28;88579;-89
2022/11/24 00:44:46;;;;;;;13.65;9.20;;;8.40;99.90;8.70;99426.00;;;;343069;28;82416;-88
2022/11/24 00:44:58;;;;;;;15.52;9.20;;;8.40;99.90;8.70;99424.00;;;;344006;28;89701;-89
2022/11/24 00:45:10;;;;;;;15.27;9.65;;;8.50;99.90;8.70;99427.00;;;;344462;28;83341;-89
2022/11/24 00:45:25;;;;;;;17.63;10.00;;;8.40;99.90;8.70;99433.00;;;;342578;28;89520;-89
2022/11/24 00:45:36;;;;;;;19.52;9.52;;;8.40;99.90;8.70;99422.00;;;;343966;28;83421;-89
2022/11/24 00:45:48;;;;;;;18.13;8.38;;;8.40;99.90;8.80;99431.00;;;;343702;28;91377;-89
2022/11/24 00:46:00;;;;;;;14.07;8.38;;;8.40;99.90;8.80;99423.00;;;;343126;28;83386;-89
2022/11/24 00:46:12;;;;;;;14.73;8.50;;;8.40;99.90;8.80;99422.00;;;;342693;28;87009;-90
2022/11/24 00:46:24;;;;;;;15.32;8.73;;;8.50;99.90;8.80;99421.00;;;;343041;28;82466;-89
2022/11/24 00:46:37;;;;;;;16.83;9.10;;;8.50;99.90;8.80;99416.00;;;;342601;28;89711;-90
2022/11/24 00:46:49;;;;;;;16.75;9.60;;;8.50;99.90;8.60;99426.00;;;;344365;28;82399;-89
2022/11/24 00:47:01;;;;;;;16.58;9.50;;;8.40;99.90;8.60;99422.00;;;;342686;28;89900;-89
2022/11/24 00:47:13;;;;;;;15.38;9.20;;;8.40;99.90;8.50;99425.00;;;;343037;28;83454;-89
2022/11/24 00:47:25;;;;;;;17.02;9.75;;;8.40;99.90;8.70;99429.00;;;;344012;28;90193;-90
2022/11/24 00:47:36;;;;;;;14.60;9.16;;;8.40;99.90;8.70;99432.00;;;;344267;28;82523;-90
2022/11/24 00:47:48;;;;;;;14.68;8.85;;;8.40;99.90;8.80;99424.00;;;;343944;28;90782;-89
2022/11/24 00:48:00;;;;;;;12.98;8.32;;;8.40;99.90;8.70;99426.00;;;;344487;28;83376;-90
2022/11/24 00:48:12;;;;;;;12.82;8.45;;;8.40;99.90;8.80;99425.00;;;;343922;28;89448;-89
2022/11/24 00:48:24;;;;;;;13.13;8.10;;;8.40;99.90;8.90;99416.00;;;;345781;28;83380;-89
2022/11/24 00:48:36;;;;;;;14.98;8.15;;;8.40;99.90;8.80;99418.00;;;;342551;28;91890;-89
2022/11/24 00:48:47;;;;;;;19.45;9.27;;;8.50;99.90;8.80;99425.00;;;;341516;28;84696;-89
2022/11/24 00:48:59;;;;;;;21.70;10.02;;;8.50;99.90;8.80;99425.00;;;;344010;28;89161;-89
2022/11/24 00:49:11;;;;;;;17.13;9.20;;;8.50;99.90;8.80;99421.00;;;;345785;28;83209;-89
2022/11/24 00:49:23;;;;;;;18.40;9.90;;;8.50;99.90;8.90;99421.00;;;;342476;28;91296;-89
2022/11/24 00:49:35;;;;;;;15.68;9.38;;;8.50;99.90;8.80;99412.00;;;;344390;28;82506;-89
2022/11/24 00:49:46;;;;;;;16.27;9.52;;;8.40;99.90;8.80;99422.00;;;;342629;28;89275;-89
2022/11/24 00:49:59;;;;;;;15.07;9.40;;;8.50;99.90;8.70;99425.00;;;;342990;28;83394;-89
2022/11/24 00:50:10;;;;;;;16.25;9.48;;;8.50;99.90;8.70;99429.00;;;;342614;28;90025;-89
2022/11/24 00:50:22;;;;;;;15.88;9.25;;;8.40;99.90;8.80;99419.00;;;;341716;28;83504;-89
2022/11/24 00:50:34;;;;;;;16.55;9.10;;;8.50;99.90;8.90;99412.00;;;;344835;28;91989;-89
2022/11/24 00:51:08;;;;;;;15.10;8.02;;;8.50;99.90;8.70;99430.00;;;;341612;28;82862;-89
2022/11/24 00:51:22;;;;;;;13.55;7.95;;;8.50;99.90;8.60;99424.00;;;;342638;28;89008;-89
2022/11/24 00:51:34;;;;;;;15.60;8.32;;;8.50;99.90;8.70;99428.00;;;;342862;28;83455;-90
2022/11/24 00:51:46;;;;;;;16.30;8.85;;;8.50;99.90;8.90;99426.00;;;;342461;28;92272;-89
2022/11/24 00:51:58;;;;;;;18.80;9.38;;;8.50;99.90;8.90;99427.00;;;;345645;28;84049;-90
2022/11/24 00:52:09;;;;;;;17.42;10.02;;;8.50;99.90;8.90;99420.00;;;;340926;28;93215;-89
2022/11/24 00:52:21;;;;;;;14.80;9.10;;;8.50;99.90;9.00;99426.00;;;;341479;28;85288;-90
2022/11/24 00:52:33;;;;;;;14.00;8.63;;;8.50;99.90;9.10;99418.00;;;;340004;28;89300;-89
2022/11/24 00:52:45;;;;;;;12.43;7.53;;;8.60;99.90;9.20;99431.00;;;;341699;28;83306;-88
2022/11/24 00:52:57;;;;;;;10.77;7.47;;;8.60;99.90;9.10;99423.00;;;;341066;28;91013;-89
2022/11/24 00:53:08;;;;;;;11.80;8.10;;;8.60;99.90;8.80;99419.00;;;;345641;28;84134;-89
2022/11/24 00:53:20;;;;;;;11.35;8.30;;;8.60;99.90;8.70;99425.00;;;;343793;28;89346;-89
2022/11/24 00:53:32;;;;;;;12.10;8.85;;;8.60;99.90;8.70;99426.00;;;;342818;28;83544;-90
2022/11/24 00:53:47;;;;;;;12.13;9.15;;;8.60;99.90;8.50;99423.00;;;;344113;28;88069;-90
2022/11/24 00:53:59;;;;;;;12.45;8.15;;;8.60;99.90;8.50;99421.00;;;;341440;28;83811;-89
2022/11/24 00:54:11;;;;;;;13.43;7.82;;;8.60;99.90;8.50;99422.00;;;;342604;28;90732;-89
2022/11/24 00:54:23;;;;;;;14.70;8.65;;;8.60;99.90;8.50;99430.00;;;;342823;28;83574;-89
2022/11/24 00:54:35;;;;;;;15.07;9.15;;;8.50;99.90;8.50;99426.00;;;;342742;28;88201;-89
2022/11/24 00:54:46;;;;;;;14.77;9.30;;;8.50;99.90;8.50;99423.00;;;;344285;28;84254;-89
2022/11/24 00:54:58;;;;;;;15.57;9.27;;;8.50;99.90;8.50;99415.00;;;;344179;28;89652;-89
2022/11/24 00:55:10;;;;;;;15.20;9.30;;;8.40;99.90;8.60;99422.00;;;;344434;28;82446;-89
2022/11/24 00:55:22;;;;;;;15.88;9.32;;;8.50;99.90;8.60;99418.00;;;;344003;28;89448;-90
2022/11/24 00:55:34;;;;;;;14.20;8.80;;;8.50;99.90;8.70;99422.00;;;;347032;28;83519;-89
2022/11/24 00:55:49;;;;;;;13.43;8.13;;;8.50;99.90;8.70;99425.00;;;;343833;28;91523;-89
2022/11/24 00:56:04;;;;;;;14.57;8.40;;;8.40;99.90;8.70;99423.00;;;;343064;28;83467;-89
2022/11/24 00:56:16;;;;;;;15.50;9.30;;;8.50;99.90;8.70;99421.00;;;;343856;28;89888;-90
2022/11/24 00:56:28;;;;;;;13.88;9.00;;;8.50;99.90;8.70;99426.00;;;;342494;28;84129;-89
2022/11/24 00:56:40;;;;;;;12.18;8.32;;;8.40;99.90;8.80;99414.00;;;;345552;28;87967;-89